sensor_id;sensor_type;location;lat;lon;timestamp;P1;durP1;ratioP1;P2;durP2;ratioP2
61373;SDS011;47242;48.158;-1.586;2022-10-16T00:00:41;4.03;;;1.70;;
61373;SDS011;47242;48.158;-1.586;2022-10-16T00:03:07;3.88;;;1.70;;
61373;SDS011;47242;48.158;-1.586;2022-10-16T00:05:37;6.78;;;1.70;;
61373;SDS011;47242;48.158;-1.586;2022-10-16T00:08:04;3.78;;;1.65;;
61373;SDS011;47242;48.158;-1.586;2022-10-16T00:10:30;2.45;;;1.58;;
61373;SDS011;47242;48.158;-1.586;2022-10-16T00:12:56;4.05;;;1.65;;
61373;SDS011;47242;48.158;-1.586;2022-10-16T00:15:21;4.43;;;2.10;;
61373;SDS011;47242;48.158;-1.586;2022-10-16T00:17:47;3.10;;;1.77;;
61373;SDS011;47242;48.158;-1.586;2022-10-16T00:20:13;3.25;;;1.90;;
61373;SDS011;47242;48.158;-1.586;2022-10-16T00:22:38;2.80;;;1.80;;
61373;SDS011;47242;48.158;-1.586;2022-10-16T00:25:05;4.22;;;1.77;;
61373;SDS011;47242;48.158;-1.586;2022-10-16T00:27:31;5.68;;;2.47;;
61373;SDS011;47242;48.158;-1.586;2022-10-16T00:29:56;3.70;;;2.13;;
61373;SDS011;47242;48.158;-1.586;2022-10-16T00:32:22;4.10;;;2.53;;
61373;SDS011;47242;48.158;-1.586;2022-10-16T00:34:49;9.60;;;2.53;;
61373;SDS011;47242;48.158;-1.586;2022-10-16T00:37:14;5.60;;;3.00;;
61373;SDS011;47242;48.158;-1.586;2022-10-16T00:39:40;6.03;;;2.92;;
61373;SDS011;47242;48.158;-1.586;2022-10-16T00:42:05;7.55;;;3.25;;
61373;SDS011;47242;48.158;-1.586;2022-10-16T00:47:42;5.35;;;2.83;;
61373;SDS011;47242;48.158;-1.586;2022-10-16T00:52:51;7.35;;;3.90;;
61373;SDS011;47242;48.158;-1.586;2022-10-16T00:55:17;9.00;;;4.00;;
61373;SDS011;47242;48.158;-1.586;2022-10-16T00:57:44;5.20;;;3.50;;
61373;SDS011;47242;48.158;-1.586;2022-10-16T01:00:11;10.63;;;3.63;;
61373;SDS011;47242;48.158;-1.586;2022-10-16T01:02:40;8.50;;;3.92;;
61373;SDS011;47242;48.158;-1.586;2022-10-16T01:05:06;8.75;;;4.45;;
61373;SDS011;47242;48.158;-1.586;2022-10-16T01:22:09;6.00;;;3.20;;
61373;SDS011;47242;48.158;-1.586;2022-10-16T01:24:41;9.68;;;3.78;;
61373;SDS011;47242;48.158;-1.586;2022-10-16T01:27:24;6.88;;;3.38;;
61373;SDS011;47242;48.158;-1.586;2022-10-16T01:30:07;6.25;;;3.53;;
61373;SDS011;47242;48.158;-1.586;2022-10-16T01:35:36;7.40;;;3.60;;
61373;SDS011;47242;48.158;-1.586;2022-10-16T01:38:08;6.28;;;3.97;;
61373;SDS011;47242;48.158;-1.586;2022-10-16T01:40:36;10.82;;;3.67;;
61373;SDS011;47242;48.158;-1.586;2022-10-16T01:43:08;7.55;;;3.22;;
61373;SDS011;47242;48.158;-1.586;2022-10-16T01:45:39;7.80;;;3.25;;
61373;SDS011;47242;48.158;-1.586;2022-10-16T01:48:09;7.47;;;3.40;;
61373;SDS011;47242;48.158;-1.586;2022-10-16T01:50:39;8.68;;;3.65;;
61373;SDS011;47242;48.158;-1.586;2022-10-16T01:53:07;7.32;;;3.78;;
61373;SDS011;47242;48.158;-1.586;2022-10-16T01:55:37;7.90;;;3.37;;
61373;SDS011;47242;48.158;-1.586;2022-10-16T01:58:09;5.15;;;3.33;;
61373;SDS011;47242;48.158;-1.586;2022-10-16T02:00:38;9.50;;;4.00;;
61373;SDS011;47242;48.158;-1.586;2022-10-16T02:03:07;7.68;;;3.63;;
61373;SDS011;47242;48.158;-1.586;2022-10-16T02:08:08;9.35;;;3.08;;
61373;SDS011;47242;48.158;-1.586;2022-10-16T02:10:34;9.63;;;3.72;;
61373;SDS011;47242;48.158;-1.586;2022-10-16T02:13:23;7.38;;;2.92;;
61373;SDS011;47242;48.158;-1.586;2022-10-16T02:15:48;4.97;;;2.75;;
61373;SDS011;47242;48.158;-1.586;2022-10-16T02:18:14;7.03;;;3.30;;
61373;SDS011;47242;48.158;-1.586;2022-10-16T02:20:43;8.30;;;2.95;;
61373;SDS011;47242;48.158;-1.586;2022-10-16T02:26:28;7.43;;;3.10;;
61373;SDS011;47242;48.158;-1.586;2022-10-16T02:29:00;5.35;;;3.08;;
61373;SDS011;47242;48.158;-1.586;2022-10-16T02:31:32;8.27;;;3.85;;
61373;SDS011;47242;48.158;-1.586;2022-10-16T02:34:00;10.80;;;3.35;;
61373;SDS011;47242;48.158;-1.586;2022-10-16T02:36:30;8.47;;;2.93;;
61373;SDS011;47242;48.158;-1.586;2022-10-16T02:38:57;8.20;;;3.45;;
61373;SDS011;47242;48.158;-1.586;2022-10-16T02:41:25;6.88;;;3.17;;
61373;SDS011;47242;48.158;-1.586;2022-10-16T02:43:51;8.93;;;3.92;;
61373;SDS011;47242;48.158;-1.586;2022-10-16T02:46:16;8.13;;;2.95;;
61373;SDS011;47242;48.158;-1.586;2022-10-16T02:48:43;5.53;;;2.70;;
61373;SDS011;47242;48.158;-1.586;2022-10-16T02:51:08;9.43;;;2.70;;
61373;SDS011;47242;48.158;-1.586;2022-10-16T02:53:34;7.30;;;2.95;;
61373;SDS011;47242;48.158;-1.586;2022-10-16T02:56:00;7.45;;;3.25;;
61373;SDS011;47242;48.158;-1.586;2022-10-16T02:58:28;6.20;;;3.28;;
61373;SDS011;47242;48.158;-1.586;2022-10-16T03:00:54;7.88;;;3.70;;
61373;SDS011;47242;48.158;-1.586;2022-10-16T03:03:20;9.85;;;2.95;;
61373;SDS011;47242;48.158;-1.586;2022-10-16T03:05:46;8.05;;;3.92;;
61373;SDS011;47242;48.158;-1.586;2022-10-16T03:08:12;7.38;;;3.78;;
61373;SDS011;47242;48.158;-1.586;2022-10-16T03:10:38;5.55;;;3.17;;
61373;SDS011;47242;48.158;-1.586;2022-10-16T03:13:21;7.60;;;3.35;;
61373;SDS011;47242;48.158;-1.586;2022-10-16T03:15:47;8.30;;;4.70;;
61373;SDS011;47242;48.158;-1.586;2022-10-16T03:18:13;9.07;;;2.90;;
61373;SDS011;47242;48.158;-1.586;2022-10-16T03:20:38;7.90;;;4.07;;
61373;SDS011;47242;48.158;-1.586;2022-10-16T03:23:04;8.60;;;3.40;;
61373;SDS011;47242;48.158;-1.586;2022-10-16T03:25:30;10.10;;;3.47;;
61373;SDS011;47242;48.158;-1.586;2022-10-16T03:27:55;9.38;;;4.18;;
61373;SDS011;47242;48.158;-1.586;2022-10-16T03:30:23;10.48;;;3.72;;
61373;SDS011;47242;48.158;-1.586;2022-10-16T03:32:49;9.98;;;3.65;;
61373;SDS011;47242;48.158;-1.586;2022-10-16T03:35:18;12.45;;;3.70;;
61373;SDS011;47242;48.158;-1.586;2022-10-16T03:37:44;10.70;;;3.97;;
61373;SDS011;47242;48.158;-1.586;2022-10-16T03:40:10;10.43;;;3.25;;
61373;SDS011;47242;48.158;-1.586;2022-10-16T03:42:36;8.80;;;3.97;;
61373;SDS011;47242;48.158;-1.586;2022-10-16T03:45:02;6.82;;;3.60;;
61373;SDS011;47242;48.158;-1.586;2022-10-16T03:47:28;8.45;;;3.17;;
61373;SDS011;47242;48.158;-1.586;2022-10-16T03:49:54;8.48;;;3.83;;
61373;SDS011;47242;48.158;-1.586;2022-10-16T03:52:19;10.95;;;3.50;;
61373;SDS011;47242;48.158;-1.586;2022-10-16T03:54:45;10.07;;;4.07;;
61373;SDS011;47242;48.158;-1.586;2022-10-16T03:57:10;11.18;;;3.85;;
61373;SDS011;47242;48.158;-1.586;2022-10-16T03:59:36;7.97;;;3.50;;
61373;SDS011;47242;48.158;-1.586;2022-10-16T04:02:01;13.15;;;4.13;;
61373;SDS011;47242;48.158;-1.586;2022-10-16T04:04:27;11.55;;;4.50;;
61373;SDS011;47242;48.158;-1.586;2022-10-16T04:06:53;12.57;;;3.92;;
61373;SDS011;47242;48.158;-1.586;2022-10-16T04:09:19;9.02;;;3.95;;
61373;SDS011;47242;48.158;-1.586;2022-10-16T04:11:44;11.73;;;3.95;;
61373;SDS011;47242;48.158;-1.586;2022-10-16T04:14:10;8.57;;;3.72;;
61373;SDS011;47242;48.158;-1.586;2022-10-16T04:16:35;8.55;;;3.65;;
61373;SDS011;47242;48.158;-1.586;2022-10-16T04:19:01;9.13;;;3.53;;
61373;SDS011;47242;48.158;-1.586;2022-10-16T04:21:27;10.73;;;4.18;;
61373;SDS011;47242;48.158;-1.586;2022-10-16T04:23:53;9.35;;;3.70;;
61373;SDS011;47242;48.158;-1.586;2022-10-16T04:26:18;11.10;;;3.60;;
61373;SDS011;47242;48.158;-1.586;2022-10-16T04:28:44;8.50;;;3.67;;
61373;SDS011;47242;48.158;-1.586;2022-10-16T04:31:09;10.23;;;3.38;;
61373;SDS011;47242;48.158;-1.586;2022-10-16T04:33:35;8.63;;;3.65;;
61373;SDS011;47242;48.158;-1.586;2022-10-16T04:36:01;9.15;;;3.47;;
61373;SDS011;47242;48.158;-1.586;2022-10-16T04:38:28;11.40;;;4.20;;
61373;SDS011;47242;48.158;-1.586;2022-10-16T04:40:54;10.25;;;4.53;;
61373;SDS011;47242;48.158;-1.586;2022-10-16T04:43:20;11.65;;;4.25;;
61373;SDS011;47242;48.158;-1.586;2022-10-16T04:45:45;12.25;;;4.40;;
61373;SDS011;47242;48.158;-1.586;2022-10-16T04:48:11;12.23;;;4.05;;
61373;SDS011;47242;48.158;-1.586;2022-10-16T04:50:37;14.45;;;4.32;;
61373;SDS011;47242;48.158;-1.586;2022-10-16T04:53:02;7.93;;;3.83;;
61373;SDS011;47242;48.158;-1.586;2022-10-16T04:55:30;7.75;;;3.65;;
61373;SDS011;47242;48.158;-1.586;2022-10-16T04:58:06;13.93;;;4.45;;
61373;SDS011;47242;48.158;-1.586;2022-10-16T05:00:31;8.02;;;4.10;;
61373;SDS011;47242;48.158;-1.586;2022-10-16T05:02:57;12.70;;;4.40;;
61373;SDS011;47242;48.158;-1.586;2022-10-16T05:05:24;8.75;;;3.50;;
61373;SDS011;47242;48.158;-1.586;2022-10-16T05:07:50;10.15;;;3.58;;
61373;SDS011;47242;48.158;-1.586;2022-10-16T05:10:16;13.02;;;4.47;;
61373;SDS011;47242;48.158;-1.586;2022-10-16T05:12:42;13.43;;;4.60;;
61373;SDS011;47242;48.158;-1.586;2022-10-16T05:15:07;11.80;;;3.78;;
61373;SDS011;47242;48.158;-1.586;2022-10-16T05:17:33;9.90;;;4.22;;
61373;SDS011;47242;48.158;-1.586;2022-10-16T05:19:59;12.82;;;5.15;;
61373;SDS011;47242;48.158;-1.586;2022-10-16T05:22:25;11.05;;;3.83;;
61373;SDS011;47242;48.158;-1.586;2022-10-16T05:24:50;13.23;;;4.35;;
61373;SDS011;47242;48.158;-1.586;2022-10-16T05:27:16;9.80;;;4.80;;
61373;SDS011;47242;48.158;-1.586;2022-10-16T05:29:48;13.95;;;4.55;;
61373;SDS011;47242;48.158;-1.586;2022-10-16T05:32:14;13.23;;;4.63;;
61373;SDS011;47242;48.158;-1.586;2022-10-16T05:34:41;10.43;;;4.70;;
61373;SDS011;47242;48.158;-1.586;2022-10-16T05:37:07;13.20;;;4.65;;
61373;SDS011;47242;48.158;-1.586;2022-10-16T05:39:33;13.25;;;4.90;;
61373;SDS011;47242;48.158;-1.586;2022-10-16T05:41:58;17.13;;;5.05;;
61373;SDS011;47242;48.158;-1.586;2022-10-16T05:44:24;14.43;;;4.75;;
61373;SDS011;47242;48.158;-1.586;2022-10-16T05:46:53;10.20;;;4.53;;
61373;SDS011;47242;48.158;-1.586;2022-10-16T05:49:20;15.60;;;4.88;;
61373;SDS011;47242;48.158;-1.586;2022-10-16T05:51:46;13.65;;;5.38;;
61373;SDS011;47242;48.158;-1.586;2022-10-16T05:54:11;12.68;;;5.03;;
61373;SDS011;47242;48.158;-1.586;2022-10-16T05:56:37;12.35;;;3.83;;
61373;SDS011;47242;48.158;-1.586;2022-10-16T05:59:03;14.63;;;5.63;;
61373;SDS011;47242;48.158;-1.586;2022-10-16T06:01:30;19.65;;;5.93;;
61373;SDS011;47242;48.158;-1.586;2022-10-16T06:03:58;16.08;;;5.03;;
61373;SDS011;47242;48.158;-1.586;2022-10-16T06:06:24;13.45;;;4.85;;
61373;SDS011;47242;48.158;-1.586;2022-10-16T06:08:51;11.07;;;5.13;;
61373;SDS011;47242;48.158;-1.586;2022-10-16T06:11:25;13.02;;;5.22;;
61373;SDS011;47242;48.158;-1.586;2022-10-16T06:13:53;17.10;;;5.38;;
61373;SDS011;47242;48.158;-1.586;2022-10-16T06:16:21;13.52;;;5.15;;
61373;SDS011;47242;48.158;-1.586;2022-10-16T06:18:50;8.65;;;4.70;;
61373;SDS011;47242;48.158;-1.586;2022-10-16T06:21:17;11.85;;;5.15;;
61373;SDS011;47242;48.158;-1.586;2022-10-16T06:23:46;16.23;;;5.63;;
61373;SDS011;47242;48.158;-1.586;2022-10-16T06:26:13;15.38;;;5.40;;
61373;SDS011;47242;48.158;-1.586;2022-10-16T06:28:41;13.60;;;5.35;;
61373;SDS011;47242;48.158;-1.586;2022-10-16T06:31:07;14.38;;;5.60;;
61373;SDS011;47242;48.158;-1.586;2022-10-16T06:33:34;15.48;;;5.85;;
61373;SDS011;47242;48.158;-1.586;2022-10-16T06:36:02;14.02;;;5.70;;
61373;SDS011;47242;48.158;-1.586;2022-10-16T06:38:32;13.40;;;5.43;;
61373;SDS011;47242;48.158;-1.586;2022-10-16T06:40:58;13.38;;;5.25;;
61373;SDS011;47242;48.158;-1.586;2022-10-16T06:43:24;14.10;;;5.50;;
61373;SDS011;47242;48.158;-1.586;2022-10-16T06:45:51;17.08;;;6.22;;
61373;SDS011;47242;48.158;-1.586;2022-10-16T06:48:18;14.57;;;5.45;;
61373;SDS011;47242;48.158;-1.586;2022-10-16T06:50:54;15.18;;;5.93;;
61373;SDS011;47242;48.158;-1.586;2022-10-16T06:53:29;15.40;;;5.47;;
61373;SDS011;47242;48.158;-1.586;2022-10-16T06:55:57;16.00;;;5.53;;
61373;SDS011;47242;48.158;-1.586;2022-10-16T06:58:23;15.13;;;5.25;;
61373;SDS011;47242;48.158;-1.586;2022-10-16T07:00:54;15.02;;;5.97;;
61373;SDS011;47242;48.158;-1.586;2022-10-16T07:03:21;14.50;;;5.30;;
61373;SDS011;47242;48.158;-1.586;2022-10-16T07:05:46;14.80;;;6.63;;
61373;SDS011;47242;48.158;-1.586;2022-10-16T07:08:12;17.58;;;7.07;;
61373;SDS011;47242;48.158;-1.586;2022-10-16T07:10:37;22.13;;;7.28;;
61373;SDS011;47242;48.158;-1.586;2022-10-16T07:13:03;16.33;;;6.82;;
61373;SDS011;47242;48.158;-1.586;2022-10-16T07:15:29;16.15;;;5.70;;
61373;SDS011;47242;48.158;-1.586;2022-10-16T07:17:54;17.73;;;6.45;;
61373;SDS011;47242;48.158;-1.586;2022-10-16T07:20:20;14.65;;;6.30;;
61373;SDS011;47242;48.158;-1.586;2022-10-16T07:22:46;14.20;;;5.00;;
61373;SDS011;47242;48.158;-1.586;2022-10-16T07:25:11;13.88;;;5.15;;
61373;SDS011;47242;48.158;-1.586;2022-10-16T07:27:37;12.27;;;4.57;;
61373;SDS011;47242;48.158;-1.586;2022-10-16T07:30:03;12.38;;;4.78;;
61373;SDS011;47242;48.158;-1.586;2022-10-16T07:32:30;10.60;;;3.83;;
61373;SDS011;47242;48.158;-1.586;2022-10-16T07:34:56;8.50;;;3.83;;
61373;SDS011;47242;48.158;-1.586;2022-10-16T07:37:22;13.55;;;3.92;;
61373;SDS011;47242;48.158;-1.586;2022-10-16T07:39:47;9.57;;;4.15;;
61373;SDS011;47242;48.158;-1.586;2022-10-16T07:42:13;8.73;;;4.20;;
61373;SDS011;47242;48.158;-1.586;2022-10-16T07:44:39;10.88;;;3.45;;
61373;SDS011;47242;48.158;-1.586;2022-10-16T07:47:06;8.07;;;3.15;;
61373;SDS011;47242;48.158;-1.586;2022-10-16T07:49:32;8.13;;;3.40;;
61373;SDS011;47242;48.158;-1.586;2022-10-16T07:51:58;7.97;;;2.20;;
61373;SDS011;47242;48.158;-1.586;2022-10-16T07:54:23;4.70;;;1.00;;
61373;SDS011;47242;48.158;-1.586;2022-10-16T07:56:49;5.47;;;2.35;;
61373;SDS011;47242;48.158;-1.586;2022-10-16T07:59:14;2.70;;;1.40;;
61373;SDS011;47242;48.158;-1.586;2022-10-16T08:01:40;4.15;;;1.52;;
61373;SDS011;47242;48.158;-1.586;2022-10-16T08:04:07;4.57;;;1.70;;
61373;SDS011;47242;48.158;-1.586;2022-10-16T08:06:37;2.95;;;1.40;;
61373;SDS011;47242;48.158;-1.586;2022-10-16T08:09:05;3.47;;;1.67;;
61373;SDS011;47242;48.158;-1.586;2022-10-16T08:11:31;5.25;;;1.33;;
61373;SDS011;47242;48.158;-1.586;2022-10-16T08:13:57;4.68;;;1.80;;
61373;SDS011;47242;48.158;-1.586;2022-10-16T08:16:23;3.75;;;1.50;;
61373;SDS011;47242;48.158;-1.586;2022-10-16T08:18:49;2.72;;;1.13;;
61373;SDS011;47242;48.158;-1.586;2022-10-16T08:21:17;4.60;;;1.75;;
61373;SDS011;47242;48.158;-1.586;2022-10-16T08:23:44;3.72;;;1.45;;
61373;SDS011;47242;48.158;-1.586;2022-10-16T08:26:10;4.63;;;1.60;;
61373;SDS011;47242;48.158;-1.586;2022-10-16T08:28:36;3.80;;;1.75;;
61373;SDS011;47242;48.158;-1.586;2022-10-16T08:31:09;3.47;;;1.67;;
61373;SDS011;47242;48.158;-1.586;2022-10-16T08:33:37;4.80;;;1.90;;
61373;SDS011;47242;48.158;-1.586;2022-10-16T08:36:04;3.88;;;1.70;;
61373;SDS011;47242;48.158;-1.586;2022-10-16T08:38:30;2.03;;;1.40;;
61373;SDS011;47242;48.158;-1.586;2022-10-16T08:41:20;5.45;;;1.63;;
61373;SDS011;47242;48.158;-1.586;2022-10-16T08:49:37;5.20;;;1.35;;
61373;SDS011;47242;48.158;-1.586;2022-10-16T08:52:10;3.35;;;0.95;;
61373;SDS011;47242;48.158;-1.586;2022-10-16T08:54:42;2.42;;;0.82;;
61373;SDS011;47242;48.158;-1.586;2022-10-16T08:57:21;1.30;;;1.02;;
61373;SDS011;47242;48.158;-1.586;2022-10-16T08:59:48;3.90;;;0.77;;
61373;SDS011;47242;48.158;-1.586;2022-10-16T09:02:24;4.90;;;1.23;;
61373;SDS011;47242;48.158;-1.586;2022-10-16T09:18:31;2.92;;;0.88;;
61373;SDS011;47242;48.158;-1.586;2022-10-16T09:21:24;2.72;;;1.00;;
61373;SDS011;47242;48.158;-1.586;2022-10-16T09:23:53;4.32;;;1.08;;
61373;SDS011;47242;48.158;-1.586;2022-10-16T09:26:23;1.13;;;0.65;;
61373;SDS011;47242;48.158;-1.586;2022-10-16T09:28:48;2.83;;;1.10;;
61373;SDS011;47242;48.158;-1.586;2022-10-16T09:31:18;2.40;;;1.13;;
61373;SDS011;47242;48.158;-1.586;2022-10-16T09:33:47;1.55;;;0.70;;
61373;SDS011;47242;48.158;-1.586;2022-10-16T09:36:23;1.48;;;0.80;;
61373;SDS011;47242;48.158;-1.586;2022-10-16T09:38:50;3.58;;;0.60;;
61373;SDS011;47242;48.158;-1.586;2022-10-16T09:41:34;1.92;;;0.70;;
61373;SDS011;47242;48.158;-1.586;2022-10-16T09:44:02;2.13;;;0.57;;
61373;SDS011;47242;48.158;-1.586;2022-10-16T09:46:34;2.03;;;0.70;;
61373;SDS011;47242;48.158;-1.586;2022-10-16T09:49:03;1.42;;;0.70;;
61373;SDS011;47242;48.158;-1.586;2022-10-16T09:51:49;4.47;;;0.80;;
61373;SDS011;47242;48.158;-1.586;2022-10-16T09:54:17;4.25;;;0.95;;
61373;SDS011;47242;48.158;-1.586;2022-10-16T09:56:44;2.42;;;0.57;;
61373;SDS011;47242;48.158;-1.586;2022-10-16T10:01:41;3.65;;;0.50;;
61373;SDS011;47242;48.158;-1.586;2022-10-16T10:04:21;1.63;;;0.57;;
61373;SDS011;47242;48.158;-1.586;2022-10-16T10:06:49;1.48;;;0.40;;
61373;SDS011;47242;48.158;-1.586;2022-10-16T10:09:24;1.75;;;0.50;;
61373;SDS011;47242;48.158;-1.586;2022-10-16T10:11:55;3.92;;;0.50;;
61373;SDS011;47242;48.158;-1.586;2022-10-16T10:17:12;1.58;;;0.50;;
61373;SDS011;47242;48.158;-1.586;2022-10-16T10:19:48;3.08;;;0.40;;
61373;SDS011;47242;48.158;-1.586;2022-10-16T10:22:22;4.18;;;0.60;;
61373;SDS011;47242;48.158;-1.586;2022-10-16T10:33:15;0.70;;;0.38;;
61373;SDS011;47242;48.158;-1.586;2022-10-16T10:38:50;3.88;;;0.77;;
61373;SDS011;47242;48.158;-1.586;2022-10-16T10:44:19;1.90;;;0.45;;
61373;SDS011;47242;48.158;-1.586;2022-10-16T10:47:17;2.22;;;0.60;;
61373;SDS011;47242;48.158;-1.586;2022-10-16T10:52:45;1.02;;;0.60;;
61373;SDS011;47242;48.158;-1.586;2022-10-16T10:55:26;2.40;;;0.77;;
61373;SDS011;47242;48.158;-1.586;2022-10-16T11:09:20;3.78;;;0.82;;
61373;SDS011;47242;48.158;-1.586;2022-10-16T11:12:01;5.18;;;0.60;;
61373;SDS011;47242;48.158;-1.586;2022-10-16T11:14:29;1.98;;;0.70;;
61373;SDS011;47242;48.158;-1.586;2022-10-16T11:22:26;5.20;;;0.85;;
61373;SDS011;47242;48.158;-1.586;2022-10-16T11:30:23;7.15;;;3.95;;
61373;SDS011;47242;48.158;-1.586;2022-10-16T11:41:35;4.25;;;3.22;;
61373;SDS011;47242;48.158;-1.586;2022-10-16T11:49:46;5.43;;;2.90;;
61373;SDS011;47242;48.158;-1.586;2022-10-16T11:54:54;4.00;;;2.15;;
61373;SDS011;47242;48.158;-1.586;2022-10-16T11:57:29;6.05;;;2.95;;
61373;SDS011;47242;48.158;-1.586;2022-10-16T12:02:46;3.55;;;1.85;;
61373;SDS011;47242;48.158;-1.586;2022-10-16T12:05:18;5.50;;;1.80;;
61373;SDS011;47242;48.158;-1.586;2022-10-16T12:07:53;4.30;;;1.45;;
61373;SDS011;47242;48.158;-1.586;2022-10-16T12:10:31;2.38;;;1.48;;
61373;SDS011;47242;48.158;-1.586;2022-10-16T12:15:29;3.58;;;1.25;;
61373;SDS011;47242;48.158;-1.586;2022-10-16T12:17:57;2.40;;;1.20;;
61373;SDS011;47242;48.158;-1.586;2022-10-16T12:30:26;2.78;;;1.67;;
61373;SDS011;47242;48.158;-1.586;2022-10-16T12:32:55;6.57;;;1.90;;
61373;SDS011;47242;48.158;-1.586;2022-10-16T12:35:24;5.13;;;1.98;;
61373;SDS011;47242;48.158;-1.586;2022-10-16T12:37:52;4.18;;;2.20;;
61373;SDS011;47242;48.158;-1.586;2022-10-16T12:40:29;5.32;;;1.80;;
61373;SDS011;47242;48.158;-1.586;2022-10-16T12:45:35;3.72;;;1.83;;
61373;SDS011;47242;48.158;-1.586;2022-10-16T12:48:02;2.78;;;1.88;;
61373;SDS011;47242;48.158;-1.586;2022-10-16T12:50:43;3.13;;;1.60;;
61373;SDS011;47242;48.158;-1.586;2022-10-16T12:53:17;4.43;;;2.35;;
61373;SDS011;47242;48.158;-1.586;2022-10-16T12:55:52;4.85;;;2.72;;
61373;SDS011;47242;48.158;-1.586;2022-10-16T12:58:29;3.65;;;2.30;;
61373;SDS011;47242;48.158;-1.586;2022-10-16T13:04:01;5.18;;;2.35;;
61373;SDS011;47242;48.158;-1.586;2022-10-16T13:09:34;3.58;;;2.42;;
61373;SDS011;47242;48.158;-1.586;2022-10-16T13:20:31;4.07;;;2.72;;
61373;SDS011;47242;48.158;-1.586;2022-10-16T13:23:17;5.28;;;2.60;;
61373;SDS011;47242;48.158;-1.586;2022-10-16T13:25:56;5.18;;;2.58;;
61373;SDS011;47242;48.158;-1.586;2022-10-16T13:28:39;3.27;;;2.37;;
61373;SDS011;47242;48.158;-1.586;2022-10-16T13:31:05;3.28;;;2.78;;
61373;SDS011;47242;48.158;-1.586;2022-10-16T13:33:48;4.05;;;2.10;;
61373;SDS011;47242;48.158;-1.586;2022-10-16T13:36:21;4.40;;;2.13;;
61373;SDS011;47242;48.158;-1.586;2022-10-16T13:38:59;4.70;;;2.25;;
61373;SDS011;47242;48.158;-1.586;2022-10-16T13:41:35;3.83;;;2.20;;
61373;SDS011;47242;48.158;-1.586;2022-10-16T13:44:01;3.40;;;2.60;;
61373;SDS011;47242;48.158;-1.586;2022-10-16T13:46:27;4.03;;;2.78;;
61373;SDS011;47242;48.158;-1.586;2022-10-16T13:51:23;4.63;;;2.53;;
61373;SDS011;47242;48.158;-1.586;2022-10-16T13:53:49;3.83;;;2.70;;
61373;SDS011;47242;48.158;-1.586;2022-10-16T13:56:17;2.60;;;2.05;;
61373;SDS011;47242;48.158;-1.586;2022-10-16T13:58:45;4.18;;;2.00;;
61373;SDS011;47242;48.158;-1.586;2022-10-16T14:01:16;3.10;;;2.00;;
61373;SDS011;47242;48.158;-1.586;2022-10-16T14:03:45;2.20;;;1.65;;
61373;SDS011;47242;48.158;-1.586;2022-10-16T14:06:13;3.22;;;1.92;;
61373;SDS011;47242;48.158;-1.586;2022-10-16T14:08:52;3.72;;;2.00;;
61373;SDS011;47242;48.158;-1.586;2022-10-16T14:11:48;3.45;;;2.00;;
61373;SDS011;47242;48.158;-1.586;2022-10-16T14:14:16;4.70;;;2.20;;
61373;SDS011;47242;48.158;-1.586;2022-10-16T14:16:43;2.03;;;1.60;;
61373;SDS011;47242;48.158;-1.586;2022-10-16T14:19:21;3.90;;;1.77;;
61373;SDS011;47242;48.158;-1.586;2022-10-16T14:21:50;3.35;;;2.13;;
61373;SDS011;47242;48.158;-1.586;2022-10-16T14:24:30;3.42;;;1.92;;
61373;SDS011;47242;48.158;-1.586;2022-10-16T14:27:00;3.58;;;2.38;;
61373;SDS011;47242;48.158;-1.586;2022-10-16T14:29:27;4.75;;;2.08;;
61373;SDS011;47242;48.158;-1.586;2022-10-16T14:32:00;4.40;;;2.17;;
61373;SDS011;47242;48.158;-1.586;2022-10-16T14:34:29;4.30;;;3.17;;
61373;SDS011;47242;48.158;-1.586;2022-10-16T14:37:09;2.75;;;1.73;;
61373;SDS011;47242;48.158;-1.586;2022-10-16T14:39:51;2.35;;;1.80;;
61373;SDS011;47242;48.158;-1.586;2022-10-16T14:42:19;3.42;;;2.00;;
61373;SDS011;47242;48.158;-1.586;2022-10-16T14:44:48;2.67;;;1.75;;
61373;SDS011;47242;48.158;-1.586;2022-10-16T14:47:18;3.50;;;2.00;;
61373;SDS011;47242;48.158;-1.586;2022-10-16T14:49:51;2.88;;;2.13;;
61373;SDS011;47242;48.158;-1.586;2022-10-16T14:52:20;4.63;;;2.30;;
61373;SDS011;47242;48.158;-1.586;2022-10-16T14:54:48;4.22;;;2.40;;
61373;SDS011;47242;48.158;-1.586;2022-10-16T14:57:18;2.72;;;2.08;;
61373;SDS011;47242;48.158;-1.586;2022-10-16T14:59:47;2.72;;;2.05;;
61373;SDS011;47242;48.158;-1.586;2022-10-16T15:05:15;2.05;;;1.73;;
61373;SDS011;47242;48.158;-1.586;2022-10-16T15:07:43;3.35;;;1.75;;
61373;SDS011;47242;48.158;-1.586;2022-10-16T15:10:09;3.83;;;2.42;;
61373;SDS011;47242;48.158;-1.586;2022-10-16T15:12:35;3.55;;;1.98;;
61373;SDS011;47242;48.158;-1.586;2022-10-16T15:15:01;2.80;;;1.83;;
61373;SDS011;47242;48.158;-1.586;2022-10-16T15:17:26;3.97;;;1.75;;
61373;SDS011;47242;48.158;-1.586;2022-10-16T15:19:52;2.50;;;1.83;;
61373;SDS011;47242;48.158;-1.586;2022-10-16T15:22:18;4.03;;;2.03;;
61373;SDS011;47242;48.158;-1.586;2022-10-16T15:24:43;2.15;;;1.40;;
61373;SDS011;47242;48.158;-1.586;2022-10-16T15:27:09;3.50;;;2.20;;
61373;SDS011;47242;48.158;-1.586;2022-10-16T15:29:35;2.20;;;1.50;;
61373;SDS011;47242;48.158;-1.586;2022-10-16T15:32:00;2.67;;;1.77;;
61373;SDS011;47242;48.158;-1.586;2022-10-16T15:34:26;3.58;;;1.70;;
61373;SDS011;47242;48.158;-1.586;2022-10-16T15:36:52;4.43;;;2.17;;
61373;SDS011;47242;48.158;-1.586;2022-10-16T15:39:18;2.58;;;1.65;;
61373;SDS011;47242;48.158;-1.586;2022-10-16T15:41:45;2.70;;;1.80;;
61373;SDS011;47242;48.158;-1.586;2022-10-16T15:44:19;3.10;;;2.15;;
61373;SDS011;47242;48.158;-1.586;2022-10-16T15:46:46;2.30;;;1.50;;
61373;SDS011;47242;48.158;-1.586;2022-10-16T15:49:12;3.20;;;1.70;;
61373;SDS011;47242;48.158;-1.586;2022-10-16T15:51:38;3.22;;;1.75;;
61373;SDS011;47242;48.158;-1.586;2022-10-16T15:54:05;3.38;;;1.80;;
61373;SDS011;47242;48.158;-1.586;2022-10-16T15:56:31;3.67;;;1.90;;
61373;SDS011;47242;48.158;-1.586;2022-10-16T15:58:58;3.83;;;1.88;;
61373;SDS011;47242;48.158;-1.586;2022-10-16T16:01:24;5.35;;;2.00;;
61373;SDS011;47242;48.158;-1.586;2022-10-16T16:03:53;3.28;;;1.63;;
61373;SDS011;47242;48.158;-1.586;2022-10-16T16:06:20;2.35;;;1.50;;
61373;SDS011;47242;48.158;-1.586;2022-10-16T16:08:46;4.28;;;2.13;;
61373;SDS011;47242;48.158;-1.586;2022-10-16T16:11:14;5.75;;;2.42;;
61373;SDS011;47242;48.158;-1.586;2022-10-16T16:13:41;3.47;;;1.73;;
61373;SDS011;47242;48.158;-1.586;2022-10-16T16:16:07;3.25;;;2.05;;
61373;SDS011;47242;48.158;-1.586;2022-10-16T16:18:34;3.85;;;2.25;;
61373;SDS011;47242;48.158;-1.586;2022-10-16T16:21:01;3.92;;;2.45;;
61373;SDS011;47242;48.158;-1.586;2022-10-16T16:23:27;5.80;;;2.63;;
61373;SDS011;47242;48.158;-1.586;2022-10-16T16:28:51;6.22;;;3.03;;
61373;SDS011;47242;48.158;-1.586;2022-10-16T16:31:17;4.95;;;2.88;;
61373;SDS011;47242;48.158;-1.586;2022-10-16T16:33:43;6.00;;;3.15;;
61373;SDS011;47242;48.158;-1.586;2022-10-16T16:36:09;6.22;;;3.60;;
61373;SDS011;47242;48.158;-1.586;2022-10-16T16:38:35;5.85;;;2.92;;
61373;SDS011;47242;48.158;-1.586;2022-10-16T16:41:14;7.80;;;3.40;;
61373;SDS011;47242;48.158;-1.586;2022-10-16T16:43:44;6.57;;;3.10;;
61373;SDS011;47242;48.158;-1.586;2022-10-16T16:46:10;4.57;;;2.50;;
61373;SDS011;47242;48.158;-1.586;2022-10-16T16:48:36;5.60;;;2.95;;
61373;SDS011;47242;48.158;-1.586;2022-10-16T16:51:06;5.43;;;3.17;;
61373;SDS011;47242;48.158;-1.586;2022-10-16T16:53:41;6.68;;;3.10;;
61373;SDS011;47242;48.158;-1.586;2022-10-16T16:56:08;5.13;;;3.13;;
61373;SDS011;47242;48.158;-1.586;2022-10-16T16:58:34;6.55;;;3.83;;
61373;SDS011;47242;48.158;-1.586;2022-10-16T17:01:00;4.90;;;3.10;;
61373;SDS011;47242;48.158;-1.586;2022-10-16T17:03:33;5.47;;;3.00;;
61373;SDS011;47242;48.158;-1.586;2022-10-16T17:06:03;4.70;;;3.17;;
61373;SDS011;47242;48.158;-1.586;2022-10-16T17:08:32;8.05;;;3.20;;
61373;SDS011;47242;48.158;-1.586;2022-10-16T17:11:00;4.07;;;3.15;;